Time;durP1;ratioP1;P1;durP2;ratioP2;P2;SDS_P1;SDS_P2;PMS_P1;PMS_P2;Temp;Humidity;BMP_temperature;BMP_pressure;BME280_temperature;BME280_humidity;BME280_pressure;Samples;Min_cycle;Max_cycle;Signal;HPM_P1;HPM_P2
2021/03/29 00:01:32;;;;;;;6.63;2.70;;;10.90;99.90;;;;;;5039513;28;20447;-81
2021/03/29 00:03:59;;;;;;;4.63;2.27;;;10.90;99.90;;;;;;5040871;28;20451;-82
2021/03/29 00:06:26;;;;;;;7.00;2.30;;;10.90;99.90;;;;;;5039131;28;20457;-81
2021/03/29 00:08:53;;;;;;;3.53;2.47;;;10.80;99.90;;;;;;5039269;28;20982;-81
2021/03/29 00:11:20;;;;;;;3.67;2.27;;;10.90;99.90;;;;;;5039160;28;20421;-82
2021/03/29 00:13:49;;;;;;;6.97;3.17;;;10.90;99.90;;;;;;5040459;28;20478;-82
2021/03/29 00:16:17;;;;;;;5.70;2.80;;;10.40;99.90;;;;;;5038383;28;20438;-82
2021/03/29 00:18:43;;;;;;;11.17;3.40;;;10.80;99.90;;;;;;5039200;28;20470;-81
2021/03/29 00:21:11;;;;;;;2.10;1.90;;;10.80;99.90;;;;;;5038569;28;20458;-82
2021/03/29 00:23:38;;;;;;;3.47;2.20;;;10.90;99.90;;;;;;5039145;28;20442;-81
2021/03/29 00:26:04;;;;;;;7.63;2.80;;;10.90;99.90;;;;;;5039264;28;20489;-81
2021/03/29 00:28:31;;;;;;;5.30;3.13;;;11.10;99.90;;;;;;5041421;28;20450;-81
2021/03/29 00:30:57;;;;;;;6.07;2.43;;;10.90;99.90;;;;;;5042509;28;20450;-82
2021/03/29 00:33:24;;;;;;;2.63;2.23;;;10.90;99.90;;;;;;5043344;28;20931;-82
2021/03/29 00:35:51;;;;;;;10.77;3.97;;;10.80;99.90;;;;;;5043217;28;20444;-82
2021/03/29 00:38:20;;;;;;;8.50;4.13;;;10.70;99.90;;;;;;5042970;28;20453;-81
2021/03/29 00:40:49;;;;;;;5.80;2.70;;;10.80;99.90;;;;;;5043588;28;20563;-81
2021/03/29 00:43:17;;;;;;;8.43;2.73;;;11.20;99.90;;;;;;5043195;28;20432;-81
2021/03/29 00:45:45;;;;;;;7.03;2.83;;;10.90;99.90;;;;;;5042942;28;20486;-81
2021/03/29 00:48:12;;;;;;;7.67;3.00;;;10.80;99.90;;;;;;5042538;28;20953;-81
2021/03/29 00:50:45;;;;;;;5.03;2.53;;;10.60;99.90;;;;;;5042291;28;20537;-81
2021/03/29 00:53:13;;;;;;;3.20;2.67;;;11.30;99.90;;;;;;5042417;28;20778;-80
2021/03/29 00:55:41;;;;;;;3.50;2.70;;;11.00;99.90;;;;;;5040868;28;20442;-81
2021/03/29 00:58:08;;;;;;;4.53;2.50;;;10.90;99.90;;;;;;5041908;28;20953;-81
2021/03/29 01:00:37;;;;;;;4.20;2.67;;;10.90;99.90;;;;;;5042268;28;20520;-80
2021/03/29 01:03:11;;;;;;;2.93;2.63;;;10.90;99.90;;;;;;5047806;28;20446;-80
2021/03/29 01:05:38;;;;;;;4.73;2.43;;;10.80;99.90;;;;;;5047465;28;20856;-80
2021/03/29 01:08:05;;;;;;;4.43;2.63;;;10.90;99.90;;;;;;5023433;28;20450;-80
2021/03/29 01:10:31;;;;;;;3.40;2.40;;;10.80;99.90;;;;;;5040346;28;20473;-79
2021/03/29 01:13:04;;;;;;;4.80;2.77;;;10.90;99.90;;;;;;5040674;28;20816;-80
2021/03/29 01:15:31;;;;;;;5.73;3.00;;;10.80;99.90;;;;;;5040805;28;20437;-80
2021/03/29 01:18:00;;;;;;;3.20;2.90;;;10.80;99.90;;;;;;5040857;28;20428;-80
2021/03/29 01:20:36;;;;;;;4.50;2.47;;;10.80;99.90;;;;;;5040501;28;20977;-80
2021/03/29 01:23:03;;;;;;;5.90;2.77;;;10.80;99.90;;;;;;5040861;28;20441;-79
2021/03/29 01:25:39;;;;;;;4.60;2.80;;;10.80;99.90;;;;;;5041156;28;20478;-81
2021/03/29 01:28:09;;;;;;;3.30;2.40;;;10.80;99.90;;;;;;5040746;28;20431;-80
2021/03/29 01:30:38;;;;;;;4.17;2.63;;;10.70;99.90;;;;;;5098699;23;20515;-85
2021/03/29 01:33:07;;;;;;;8.77;2.80;;;10.50;99.90;;;;;;5063663;28;20441;-83
2021/03/29 01:35:35;;;;;;;4.20;3.13;;;10.70;99.90;;;;;;5071973;28;20442;-82
2021/03/29 01:38:03;;;;;;;4.97;3.53;;;10.70;99.90;;;;;;5077336;28;20520;-81
2021/03/29 01:40:30;;;;;;;5.60;3.27;;;10.70;99.90;;;;;;5076307;28;20540;-81
2021/03/29 01:42:57;;;;;;;6.83;3.07;;;10.90;99.90;;;;;;5077319;28;20457;-81
2021/03/29 01:45:25;;;;;;;3.43;2.53;;;10.30;99.90;;;;;;5068888;28;20480;-84
2021/03/29 01:47:52;;;;;;;2.50;2.30;;;10.40;99.90;;;;;;5062582;28;20472;-83
2021/03/29 01:50:22;;;;;;;5.93;3.33;;;10.70;99.90;;;;;;5061448;28;20466;-84
2021/03/29 01:52:48;;;;;;;3.97;2.70;;;10.70;99.90;;;;;;5060903;28;20865;-84
2021/03/29 01:55:15;;;;;;;5.33;3.00;;;10.70;99.90;;;;;;5060542;28;20420;-83
2021/03/29 01:57:41;;;;;;;2.77;2.43;;;10.70;99.90;;;;;;5060788;28;20446;-83
2021/03/29 02:00:10;;;;;;;5.37;2.83;;;10.70;99.90;;;;;;5061461;28;20444;-84
2021/03/29 02:02:38;;;;;;;4.40;2.77;;;10.70;99.90;;;;;;5061984;28;20527;-84
2021/03/29 02:05:08;;;;;;;4.07;2.40;;;10.70;99.90;;;;;;5059959;28;20474;-84
2021/03/29 02:07:35;;;;;;;3.87;2.60;;;10.60;99.90;;;;;;5059781;28;20479;-84
2021/03/29 02:10:01;;;;;;;3.90;3.10;;;10.70;99.90;;;;;;5059514;28;20987;-83
2021/03/29 02:12:28;;;;;;;9.07;2.53;;;10.70;99.90;;;;;;5059485;28;20420;-82
2021/03/29 02:14:55;;;;;;;5.97;2.20;;;10.70;99.90;;;;;;5059330;28;20948;-85
2021/03/29 02:17:22;;;;;;;3.20;2.27;;;10.70;99.90;;;;;;5059446;28;20441;-82
2021/03/29 02:19:50;;;;;;;4.07;2.80;;;10.60;99.90;;;;;;5059620;28;20816;-84
2021/03/29 02:22:17;;;;;;;4.93;2.77;;;10.60;99.90;;;;;;5060370;28;20439;-85
2021/03/29 02:24:43;;;;;;;4.33;2.70;;;10.60;99.90;;;;;;5059581;28;20472;-83
2021/03/29 02:27:09;;;;;;;5.00;2.63;;;10.50;99.90;;;;;;5059790;28;20485;-83
2021/03/29 02:29:36;;;;;;;6.47;3.27;;;10.60;99.90;;;;;;5067909;28;20480;-82
2021/03/29 02:32:04;;;;;;;5.47;2.70;;;10.50;99.90;;;;;;5079309;28;20449;-82
2021/03/29 02:34:30;;;;;;;8.90;3.37;;;10.40;99.90;;;;;;5074330;28;20479;-84
2021/03/29 02:36:59;;;;;;;3.90;2.63;;;10.40;99.90;;;;;;5071888;28;20445;-80
2021/03/29 02:39:25;;;;;;;5.83;2.50;;;10.30;99.90;;;;;;5075332;28;20465;-81
2021/03/29 02:41:52;;;;;;;7.00;3.43;;;10.30;99.90;;;;;;5075585;28;20449;-83
2021/03/29 02:44:19;;;;;;;3.27;2.17;;;10.20;99.90;;;;;;5064542;28;20449;-84
2021/03/29 02:46:48;;;;;;;5.33;2.80;;;10.20;99.90;;;;;;5062372;28;20493;-85
2021/03/29 02:49:16;;;;;;;5.50;2.90;;;10.20;99.90;;;;;;5061258;28;20478;-81
2021/03/29 02:51:44;;;;;;;5.40;2.77;;;10.20;99.90;;;;;;5060588;28;20473;-81
2021/03/29 02:54:13;;;;;;;4.50;2.63;;;10.30;99.90;;;;;;5059373;28;20970;-83
2021/03/29 02:56:42;;;;;;;2.83;2.60;;;10.10;99.90;;;;;;5059378;28;20472;-83
2021/03/29 02:59:13;;;;;;;4.00;3.10;;;10.30;99.90;;;;;;5059712;28;20458;-83
2021/03/29 03:01:40;;;;;;;5.33;2.57;;;10.30;99.90;;;;;;5060079;28;20412;-82
2021/03/29 03:04:09;;;;;;;5.20;2.93;;;10.40;99.90;;;;;;5062052;28;20449;-84
2021/03/29 03:06:36;;;;;;;3.87;2.80;;;10.40;99.90;;;;;;5063101;28;20481;-83
2021/03/29 03:09:05;;;;;;;6.78;2.80;;;10.20;99.90;;;;;;5065414;28;20430;-80
2021/03/29 03:11:33;;;;;;;10.13;3.23;;;10.30;99.90;;;;;;5070104;28;20233;-83
2021/03/29 03:14:02;;;;;;;7.73;3.40;;;10.40;99.90;;;;;;5059524;28;20449;-83
2021/03/29 03:16:30;;;;;;;9.10;4.40;;;10.40;99.90;;;;;;5058708;28;20434;-82
2021/03/29 03:18:56;;;;;;;7.00;3.83;;;10.60;99.90;;;;;;5058467;28;20440;-83
2021/03/29 03:21:22;;;;;;;5.82;3.00;;;10.20;99.90;;;;;;5058151;28;20447;-84
2021/03/29 03:23:54;;;;;;;3.90;2.63;;;10.40;99.90;;;;;;5058648;28;20577;-82
2021/03/29 03:26:20;;;;;;;4.70;2.30;;;10.40;99.90;;;;;;5058280;28;20480;-83
2021/03/29 03:28:49;;;;;;;5.07;3.17;;;10.40;99.90;;;;;;5058329;28;20801;-82
2021/03/29 03:31:17;;;;;;;6.00;3.10;;;10.40;99.90;;;;;;5056292;28;21001;-83
2021/03/29 03:33:44;;;;;;;4.00;3.17;;;10.50;99.90;;;;;;5056797;28;20511;-81
2021/03/29 03:36:12;;;;;;;4.93;3.40;;;10.50;99.90;;;;;;5062002;28;20425;-83
2021/03/29 03:38:42;;;;;;;7.27;3.70;;;10.40;99.90;;;;;;5075615;28;20864;-81
2021/03/29 03:41:11;;;;;;;4.00;2.80;;;10.70;99.90;;;;;;5075930;28;20445;-81
2021/03/29 03:43:41;;;;;;;8.75;3.10;;;10.40;99.90;;;;;;5071800;28;20436;-83
2021/03/29 03:46:12;;;;;;;9.93;3.40;;;10.40;99.90;;;;;;5069402;28;20215;-83
2021/03/29 03:48:39;;;;;;;8.10;3.33;;;10.40;99.90;;;;;;5060171;28;20905;-83
2021/03/29 03:51:06;;;;;;;9.07;3.80;;;10.30;99.90;;;;;;5059573;28;20822;-82
2021/03/29 03:53:34;;;;;;;4.80;2.83;;;10.30;99.90;;;;;;5059836;28;20757;-85
2021/03/29 03:56:01;;;;;;;8.83;2.70;;;;;;;;;;5059325;28;20445;-82
2021/03/29 03:58:29;;;;;;;15.80;4.37;;;10.40;99.90;;;;;;5059326;28;20449;-83
2021/03/29 04:00:56;;;;;;;7.27;4.30;;;10.40;99.90;;;;;;5058665;28;20491;-83
2021/03/29 04:03:24;;;;;;;6.67;3.73;;;10.40;99.90;;;;;;5062855;28;20453;-84
2021/03/29 04:05:50;;;;;;;7.10;3.10;;;10.40;99.90;;;;;;5062795;28;20827;-83
2021/03/29 04:08:16;;;;;;;3.10;2.73;;;10.50;99.90;;;;;;5062540;28;20420;-83
2021/03/29 04:10:46;;;;;;;10.60;4.00;;;10.40;99.90;;;;;;5066770;28;20500;-81
2021/03/29 04:13:15;;;;;;;6.10;3.40;;;10.40;99.90;;;;;;5071915;28;20506;-83
2021/03/29 04:15:41;;;;;;;6.87;3.57;;;10.40;99.90;;;;;;5071472;28;20262;-82
2021/03/29 04:18:09;;;;;;;6.37;3.70;;;10.40;99.90;;;;;;5073910;28;20831;-83
2021/03/29 04:20:37;;;;;;;4.63;3.07;;;10.40;99.90;;;;;;5069939;28;20473;-83
2021/03/29 04:23:03;;;;;;;4.53;3.00;;;10.40;99.90;;;;;;5068820;28;20423;-83
2021/03/29 04:25:30;;;;;;;8.70;4.03;;;10.50;99.90;;;;;;5067553;28;20455;-83
2021/03/29 04:27:56;;;;;;;9.52;3.45;;;10.30;99.90;;;;;;5071358;28;20432;-83
2021/03/29 04:30:24;;;;;;;5.93;4.03;;;10.30;99.90;;;;;;5069600;28;20237;-83
2021/03/29 04:32:52;;;;;;;8.03;3.30;;;10.40;99.90;;;;;;5073507;28;20479;-83
2021/03/29 04:35:20;;;;;;;7.10;3.30;;;10.40;99.90;;;;;;5074331;28;20441;-83
2021/03/29 04:37:47;;;;;;;6.60;3.03;;;10.40;99.90;;;;;;5074483;28;20794;-82
2021/03/29 04:40:14;;;;;;;4.23;2.93;;;10.10;99.90;;;;;;5077975;28;20476;-82
2021/03/29 04:42:41;;;;;;;5.60;3.13;;;10.40;99.90;;;;;;5079730;28;20436;-82
2021/03/29 04:45:08;;;;;;;5.13;3.40;;;10.30;99.90;;;;;;5079096;28;20420;-81
2021/03/29 04:47:35;;;;;;;5.47;3.50;;;10.30;99.90;;;;;;5076520;28;20426;-82
2021/03/29 04:50:02;;;;;;;6.63;3.17;;;10.30;99.90;;;;;;5077561;28;20465;-82
2021/03/29 04:52:28;;;;;;;9.63;3.20;;;10.20;99.90;;;;;;5079485;28;20436;-83
2021/03/29 04:54:58;;;;;;;4.53;2.90;;;10.30;99.90;;;;;;5075155;28;20416;-83
2021/03/29 04:57:24;;;;;;;6.57;3.20;;;10.30;99.90;;;;;;5075440;28;20433;-81
2021/03/29 04:59:50;;;;;;;7.63;3.97;;;10.30;99.90;;;;;;5062577;28;20461;-82
2021/03/29 05:02:16;;;;;;;9.73;3.50;;;10.30;99.90;;;;;;5064994;28;20441;-82
2021/03/29 05:04:42;;;;;;;6.50;3.33;;;10.30;99.90;;;;;;5065138;28;20529;-82
2021/03/29 05:07:09;;;;;;;6.37;2.77;;;10.30;99.90;;;;;;5067354;28;20485;-83
2021/03/29 05:09:36;;;;;;;5.80;3.00;;;10.30;99.90;;;;;;5063715;28;20461;-81
2021/03/29 05:12:08;;;;;;;5.40;4.30;;;10.30;99.90;;;;;;5060554;28;20484;-83
2021/03/29 05:14:35;;;;;;;8.60;3.80;;;10.30;99.90;;;;;;5058506;28;20433;-82
2021/03/29 05:17:02;;;;;;;9.53;3.63;;;10.30;99.90;;;;;;5067657;28;20423;-81
2021/03/29 05:19:28;;;;;;;5.80;3.90;;;10.30;99.90;;;;;;5077949;28;20470;-81
2021/03/29 05:21:54;;;;;;;7.13;4.70;;;10.20;99.90;;;;;;5077018;28;20424;-83
2021/03/29 05:24:20;;;;;;;14.40;3.70;;;10.20;99.90;;;;;;5066058;28;20453;-82
2021/03/29 05:26:46;;;;;;;5.23;3.30;;;10.30;99.90;;;;;;5060864;28;20481;-84
2021/03/29 05:29:13;;;;;;;3.53;3.17;;;10.30;99.90;;;;;;5060418;28;20476;-83
2021/03/29 05:31:40;;;;;;;8.27;4.00;;;11.10;99.90;;;;;;5060737;28;20409;-81
2021/03/29 05:34:06;;;;;;;4.53;3.70;;;10.30;99.90;;;;;;5060096;28;20450;-82
2021/03/29 05:36:33;;;;;;;8.00;4.73;;;10.40;99.90;;;;;;5076001;28;20417;-83
2021/03/29 05:38:59;;;;;;;8.03;3.60;;;10.50;99.90;;;;;;5061512;28;20474;-83
2021/03/29 05:41:25;;;;;;;3.83;2.73;;;10.50;99.90;;;;;;5062378;28;20816;-83
2021/03/29 05:43:52;;;;;;;7.43;3.50;;;10.50;99.90;;;;;;5062511;28;20528;-83
2021/03/29 05:46:19;;;;;;;5.87;3.53;;;10.90;99.90;;;;;;5061114;28;20510;-82
2021/03/29 05:48:45;;;;;;;8.73;4.00;;;10.70;99.90;;;;;;5060579;28;20454;-82
2021/03/29 05:51:11;;;;;;;8.93;4.30;;;10.70;99.90;;;;;;5062470;28;20449;-83
2021/03/29 05:53:37;;;;;;;9.20;5.63;;;10.70;99.90;;;;;;5070727;28;20452;-82
2021/03/29 05:56:06;;;;;;;10.83;4.47;;;10.60;99.90;;;;;;5079113;28;20446;-83
2021/03/29 05:58:38;;;;;;;9.87;4.43;;;10.70;99.90;;;;;;5068958;28;20435;-80
2021/03/29 06:01:05;;;;;;;7.03;3.60;;;10.70;99.90;;;;;;5076847;28;20443;-81
2021/03/29 06:03:35;;;;;;;8.73;4.60;;;10.60;99.90;;;;;;5075869;28;20429;-81
2021/03/29 06:06:04;;;;;;;5.50;4.30;;;10.70;99.90;;;;;;5063490;28;21253;-82
2021/03/29 06:08:31;;;;;;;5.27;4.10;;;10.80;99.90;;;;;;5061128;28;20449;-81
2021/03/29 06:11:00;;;;;;;4.67;4.20;;;10.90;99.90;;;;;;5072901;28;20473;-80
2021/03/29 06:13:28;;;;;;;6.90;3.70;;;10.90;99.90;;;;;;5076276;28;20425;-81
2021/03/29 06:16:07;;;;;;;12.97;5.33;;;10.80;99.90;;;;;;5075676;28;20445;-82
2021/03/29 06:18:35;;;;;;;11.20;3.90;;;10.70;99.90;;;;;;5075130;28;20438;-81
2021/03/29 06:21:04;;;;;;;11.97;4.40;;;10.70;99.90;;;;;;5075595;28;20440;-82
2021/03/29 06:23:31;;;;;;;8.10;4.67;;;10.80;99.90;;;;;;5075250;28;20453;-82
2021/03/29 06:26:18;;;;;;;8.53;4.40;;;10.90;99.90;;;;;;5078642;28;20469;-83
2021/03/29 06:28:48;;;;;;;8.93;4.30;;;11.30;99.90;;;;;;5079445;28;20419;-82
2021/03/29 06:31:21;;;;;;;15.23;3.73;;;11.30;99.90;;;;;;5079090;28;20404;-83
2021/03/29 06:33:49;;;;;;;6.27;4.27;;;11.10;99.90;;;;;;5063982;28;20436;-83
2021/03/29 06:36:40;;;;;;;9.43;3.80;;;12.00;99.90;;;;;;5063447;28;20413;-83
2021/03/29 06:39:16;;;;;;;11.57;5.40;;;11.20;99.90;;;;;;5047830;28;20848;-85
2021/03/29 06:41:52;;;;;;;6.53;4.10;;;11.20;99.90;;;;;;5062201;28;20443;-84
2021/03/29 06:44:25;;;;;;;7.77;3.80;;;11.30;99.90;;;;;;5062509;28;20400;-84
2021/03/29 06:47:06;;;;;;;7.53;4.20;;;11.40;99.90;;;;;;5060814;28;21026;-82
2021/03/29 06:49:43;;;;;;;11.73;4.73;;;11.40;99.90;;;;;;5061796;28;20447;-84
2021/03/29 06:52:27;;;;;;;7.43;3.43;;;11.50;99.90;;;;;;5061415;28;20421;-84
2021/03/29 06:54:54;;;;;;;8.93;4.10;;;11.60;99.90;;;;;;5061641;28;20495;-82
2021/03/29 06:57:27;;;;;;;7.30;3.43;;;11.70;99.90;;;;;;5061155;28;20442;-83
2021/03/29 06:59:54;;;;;;;5.10;3.40;;;11.90;99.90;;;;;;5060908;28;20473;-83
2021/03/29 07:02:36;;;;;;;12.97;4.53;;;11.90;99.90;;;;;;5061282;28;20449;-84
2021/03/29 07:05:05;;;;;;;9.63;4.40;;;12.10;99.90;;;;;;5062241;28;20449;-82
2021/03/29 07:07:31;;;;;;;8.90;3.50;;;12.00;99.90;;;;;;5060216;28;20550;-84
2021/03/29 07:09:59;;;;;;;4.87;3.67;;;12.00;99.90;;;;;;5065351;28;20584;-82
2021/03/29 07:12:30;;;;;;;4.60;3.17;;;11.90;99.90;;;;;;5076006;28;20449;-82
2021/03/29 07:14:58;;;;;;;8.40;3.60;;;12.00;99.90;;;;;;5077263;28;20421;-82
2021/03/29 07:17:27;;;;;;;6.80;4.57;;;12.10;99.90;;;;;;5073281;28;20437;-83
2021/03/29 07:19:54;;;;;;;8.50;4.67;;;12.10;99.90;;;;;;5072320;28;20473;-82
2021/03/29 07:22:22;;;;;;;6.27;3.43;;;12.10;99.90;;;;;;5071330;28;20437;-83
2021/03/29 07:24:48;;;;;;;10.63;4.50;;;12.20;99.90;;;;;;5070880;28;20453;-84
2021/03/29 07:27:15;;;;;;;5.90;4.17;;;12.20;99.90;;;;;;5068234;28;20481;-84
2021/03/29 07:29:48;;;;;;;8.60;3.70;;;12.20;99.90;;;;;;5108396;22;20464;-85
2021/03/29 07:32:28;;;;;;;10.33;3.70;;;12.20;99.90;;;;;;5073027;28;20422;-84
2021/03/29 07:34:56;;;;;;;10.40;4.10;;;12.10;99.90;;;;;;5073016;28;20437;-84
2021/03/29 07:37:40;;;;;;;10.40;4.63;;;12.30;99.90;;;;;;5070881;28;20431;-85
2021/03/29 07:40:08;;;;;;;9.60;4.03;;;12.50;99.90;;;;;;5071236;28;20465;-84
2021/03/29 07:42:45;;;;;;;11.83;5.23;;;12.70;99.90;;;;;;5067647;28;20442;-86
2021/03/29 07:45:15;;;;;;;5.00;3.60;;;12.60;99.90;;;;;;5066209;28;20418;-85
2021/03/29 07:47:49;;;;;;;9.70;3.80;;;12.90;99.90;;;;;;5059864;28;20481;-86
2021/03/29 07:50:40;;;;;;;3.47;3.10;;;12.80;99.90;;;;;;5061734;28;20497;-84
2021/03/29 07:53:16;;;;;;;11.07;3.73;;;12.90;99.90;;;;;;5061772;28;20449;-85
2021/03/29 07:55:45;;;;;;;10.93;4.37;;;12.80;99.90;;;;;;5070509;28;20440;-85
2021/03/29 07:58:13;;;;;;;10.27;4.73;;;12.70;99.90;;;;;;5074705;28;20425;-85
2021/03/29 08:00:44;;;;;;;10.67;4.77;;;12.90;99.90;;;;;;5073980;28;20473;-85
2021/03/29 08:03:41;;;;;;;9.97;4.07;;;13.00;99.90;;;;;;5073929;28;20440;-85
2021/03/29 08:06:27;;;;;;;8.77;3.53;;;13.10;99.90;;;;;;5068425;28;20469;-84
2021/03/29 08:08:54;;;;;;;8.63;4.60;;;13.10;99.90;;;;;;5068861;28;20449;-83
2021/03/29 08:11:22;;;;;;;11.20;4.67;;;13.30;99.90;;;;;;5069308;28;20465;-83
2021/03/29 08:13:50;;;;;;;4.77;3.50;;;13.50;99.90;;;;;;5069675;28;20434;-83
2021/03/29 08:16:28;;;;;;;9.23;3.27;;;13.40;99.90;;;;;;5061123;28;20441;-83
2021/03/29 08:19:14;;;;;;;6.03;3.20;;;13.50;99.90;;;;;;5060752;28;20445;-84
2021/03/29 08:21:46;;;;;;;6.30;4.00;;;13.70;99.90;;;;;;5061822;28;20487;-84
2021/03/29 08:24:25;;;;;;;7.97;3.47;;;13.60;99.90;;;;;;5059700;28;20436;-85
2021/03/29 08:26:54;;;;;;;10.40;4.47;;;13.70;99.90;;;;;;5061604;28;20563;-84
2021/03/29 08:29:29;;;;;;;7.30;3.70;;;14.30;99.90;;;;;;5056523;28;20793;-78
2021/03/29 08:32:07;;;;;;;8.70;4.30;;;14.00;99.90;;;;;;5053336;28;20969;-78
2021/03/29 08:34:36;;;;;;;7.17;3.60;;;13.90;99.90;;;;;;5054150;28;20534;-79
2021/03/29 08:37:05;;;;;;;10.07;3.93;;;13.70;99.90;;;;;;5052889;28;21008;-79
2021/03/29 08:39:33;;;;;;;12.10;3.37;;;13.90;99.90;;;;;;5056726;28;21040;-79
2021/03/29 08:42:01;;;;;;;5.57;3.80;;;14.00;99.90;;;;;;5059352;28;20910;-79
2021/03/29 08:44:28;;;;;;;8.67;4.10;;;13.90;99.90;;;;;;5054228;28;20454;-78
2021/03/29 08:46:56;;;;;;;8.30;3.03;;;14.30;99.90;;;;;;5056478;28;20505;-80
2021/03/29 08:49:24;;;;;;;11.53;3.73;;;14.60;99.90;;;;;;5065817;28;20440;-79
2021/03/29 08:51:53;;;;;;;11.87;3.40;;;14.20;99.90;;;;;;5062805;28;20455;-80
2021/03/29 08:54:19;;;;;;;4.70;3.03;;;14.00;99.90;;;;;;5062481;28;20429;-80
2021/03/29 08:56:50;;;;;;;3.40;2.90;;;14.10;99.90;;;;;;5065938;28;20488;-80
2021/03/29 08:59:17;;;;;;;5.30;3.67;;;13.70;99.90;;;;;;5060458;28;20940;-80
2021/03/29 09:01:43;;;;;;;8.77;3.20;;;14.10;99.90;;;;;;5061218;28;20445;-80
2021/03/29 09:04:10;;;;;;;7.13;2.90;;;14.20;99.90;;;;;;5062381;28;20507;-80
2021/03/29 09:06:37;;;;;;;10.47;4.00;;;14.30;99.90;;;;;;5062648;28;20485;-80
2021/03/29 09:09:13;;;;;;;8.93;3.07;;;14.40;99.90;;;;;;5061968;28;20460;-80
2021/03/29 09:11:41;;;;;;;9.53;3.73;;;14.60;99.90;;;;;;5060224;28;20445;-80
2021/03/29 09:14:09;;;;;;;11.53;3.37;;;14.60;99.90;;;;;;5057317;28;20506;-78
2021/03/29 09:16:35;;;;;;;4.60;2.80;;;14.90;99.90;;;;;;5056634;28;20438;-78
2021/03/29 09:19:20;;;;;;;8.10;3.50;;;15.00;99.90;;;;;;5056022;28;20453;-78
2021/03/29 09:21:55;;;;;;;6.10;2.77;;;15.00;99.90;;;;;;5056974;28;20468;-79
2021/03/29 09:24:22;;;;;;;6.67;3.27;;;15.00;99.90;;;;;;5060465;28;20406;-78
2021/03/29 09:27:00;;;;;;;4.70;2.70;;;15.00;99.90;;;;;;5063004;28;20481;-78
2021/03/29 09:29:32;;;;;;;7.23;3.30;;;15.00;99.90;;;;;;5061859;28;20443;-76
2021/03/29 09:32:06;;;;;;;9.10;4.00;;;15.00;99.90;;;;;;5062654;28;20434;-78
2021/03/29 09:34:33;;;;;;;3.50;2.80;;;14.90;99.90;;;;;;5057228;28;20426;-78
2021/03/29 09:36:59;;;;;;;6.27;2.60;;;14.80;99.90;;;;;;5057109;28;20520;-78
2021/03/29 09:39:29;;;;;;;8.40;3.30;;;15.50;99.90;;;;;;5056547;28;20445;-79
2021/03/29 09:41:56;;;;;;;5.97;2.90;;;15.30;99.90;;;;;;5056600;28;20811;-79
2021/03/29 09:44:29;;;;;;;10.60;3.43;;;15.50;99.90;;;;;;5056825;28;20484;-77
2021/03/29 09:46:58;;;;;;;10.27;3.93;;;15.40;99.90;;;;;;5057543;28;20591;-78
2021/03/29 09:49:28;;;;;;;4.73;3.50;;;15.70;99.90;;;;;;5056490;28;20502;-77
2021/03/29 09:52:03;;;;;;;6.13;3.17;;;15.50;99.90;;;;;;5055893;28;20430;-78
2021/03/29 09:54:32;;;;;;;8.33;3.00;;;15.60;99.90;;;;;;5055609;28;20434;-78
2021/03/29 09:57:01;;;;;;;4.57;2.90;;;15.40;99.90;;;;;;5056007;28;20549;-78
2021/03/29 09:59:31;;;;;;;8.10;3.53;;;15.70;99.90;;;;;;5057003;28;20922;-78
2021/03/29 10:01:58;;;;;;;4.27;3.27;;;15.80;99.90;;;;;;5058017;28;20441;-78
2021/03/29 10:04:25;;;;;;;4.80;3.30;;;15.80;99.90;;;;;;5058062;28;20797;-78
2021/03/29 10:06:54;;;;;;;4.27;2.17;;;16.00;99.90;;;;;;5057663;28;20525;-79
2021/03/29 10:09:34;;;;;;;8.50;3.20;;;16.10;99.90;;;;;;5056942;28;20997;-78
2021/03/29 10:12:02;;;;;;;9.70;4.00;;;16.50;99.90;;;;;;5056859;28;20449;-78
2021/03/29 10:14:36;;;;;;;4.87;3.17;;;16.40;99.90;;;;;;5056034;28;20453;-79
2021/03/29 10:17:14;;;;;;;15.10;2.90;;;16.40;99.90;;;;;;5055488;28;20418;-79
2021/03/29 10:19:40;;;;;;;4.70;2.93;;;16.70;99.90;;;;;;5054944;28;20499;-79
2021/03/29 10:22:11;;;;;;;12.47;2.70;;;16.60;99.90;;;;;;5055106;28;20442;-79
2021/03/29 10:24:55;;;;;;;6.77;2.90;;;16.80;99.90;;;;;;5055572;28;20556;-79
2021/03/29 10:27:22;;;;;;;6.17;3.60;;;;;;;;;;5055011;28;20564;-79
2021/03/29 10:29:48;;;;;;;7.60;2.90;;;17.30;99.90;;;;;;5054315;28;20826;-78
2021/03/29 10:32:17;;;;;;;6.93;2.97;;;16.90;99.90;;;;;;5054539;28;20487;-78
2021/03/29 10:34:46;;;;;;;9.53;3.50;;;16.70;99.90;;;;;;5054814;28;20468;-79
2021/03/29 10:37:21;;;;;;;8.33;2.43;;;16.70;99.90;;;;;;5055267;28;20594;-78
2021/03/29 10:39:48;;;;;;;6.53;2.97;;;16.80;99.90;;;;;;5054839;28;20472;-78
2021/03/29 10:42:15;;;;;;;7.07;3.20;;;16.70;99.90;;;;;;5054461;28;20418;-79
2021/03/29 10:44:42;;;;;;;6.20;2.47;;;;;;;;;;5055322;28;20437;-79
2021/03/29 10:47:08;;;;;;;5.13;2.70;;;16.60;99.90;;;;;;5055061;28;20481;-79
2021/03/29 10:49:35;;;;;;;5.57;2.63;;;16.50;99.90;;;;;;5054450;28;20474;-79
2021/03/29 10:52:02;;;;;;;4.17;3.23;;;16.70;99.90;;;;;;5054910;28;20951;-79
2021/03/29 10:54:28;;;;;;;5.70;3.67;;;16.50;99.90;;;;;;5055546;28;20445;-78
2021/03/29 10:56:54;;;;;;;4.03;2.50;;;16.30;99.90;;;;;;5055532;28;20495;-79
2021/03/29 10:59:20;;;;;;;11.87;2.90;;;15.90;99.90;;;;;;5055452;28;20479;-78
2021/03/29 11:01:47;;;;;;;7.80;3.03;;;16.00;99.90;;;;;;5055461;28;20481;-79
2021/03/29 11:04:13;;;;;;;8.60;3.73;;;15.90;99.90;;;;;;5055108;28;20456;-78
2021/03/29 11:06:40;;;;;;;6.87;2.43;;;15.80;99.90;;;;;;5054973;28;20480;-79
2021/03/29 11:09:07;;;;;;;7.20;3.10;;;16.10;99.90;;;;;;5061345;28;20450;-82
2021/03/29 11:11:33;;;;;;;7.00;2.70;;;16.10;99.90;;;;;;5062518;28;20439;-83
2021/03/29 11:14:00;;;;;;;8.57;3.60;;;;;;;;;;5069022;28;20490;-83
2021/03/29 11:16:27;;;;;;;11.43;3.37;;;16.20;99.90;;;;;;5063251;28;20499;-82
2021/03/29 11:18:53;;;;;;;12.77;2.63;;;16.50;99.90;;;;;;5065612;28;20464;-83
2021/03/29 11:21:19;;;;;;;7.00;3.20;;;15.80;99.90;;;;;;5066278;28;20472;-83
2021/03/29 11:23:47;;;;;;;5.60;2.63;;;16.20;99.90;;;;;;5065105;28;20445;-83
2021/03/29 11:26:13;;;;;;;6.30;2.97;;;16.20;99.90;;;;;;5066226;28;20485;-83
2021/03/29 11:28:39;;;;;;;5.73;3.00;;;16.10;99.90;;;;;;5060776;28;20438;-83
2021/03/29 11:31:05;;;;;;;8.47;2.33;;;16.30;99.90;;;;;;5064974;28;20595;-83
2021/03/29 11:33:31;;;;;;;7.00;3.30;;;16.30;99.90;;;;;;5073573;28;20811;-83
2021/03/29 11:35:57;;;;;;;10.00;2.70;;;16.60;99.90;;;;;;5072851;28;20476;-83
2021/03/29 11:38:24;;;;;;;5.37;2.90;;;16.20;99.90;;;;;;5072459;28;20479;-84
2021/03/29 11:40:51;;;;;;;11.20;3.30;;;16.10;99.90;;;;;;5065166;28;20469;-83
2021/03/29 11:43:17;;;;;;;5.37;2.63;;;16.00;99.90;;;;;;5060639;28;20503;-83
2021/03/29 11:45:43;;;;;;;3.90;3.00;;;16.10;99.90;;;;;;5059783;28;20449;-82
2021/03/29 11:48:09;;;;;;;9.83;3.03;;;16.20;99.90;;;;;;5058958;28;20485;-83
2021/03/29 11:50:36;;;;;;;3.97;1.97;;;16.20;99.90;;;;;;5059545;28;20560;-83
2021/03/29 11:53:03;;;;;;;5.20;2.17;;;16.60;99.90;;;;;;5059019;28;20434;-83
2021/03/29 11:55:29;;;;;;;3.30;2.30;;;16.80;99.90;;;;;;5058885;28;20913;-84
2021/03/29 11:57:56;;;;;;;5.03;2.40;;;16.70;99.90;;;;;;5059779;28;20446;-83
2021/03/29 12:00:28;;;;;;;16.53;4.27;;;16.70;99.90;;;;;;5059504;28;20836;-83
2021/03/29 12:03:01;;;;;;;4.63;2.60;;;16.80;99.90;;;;;;5061548;28;20445;-83
2021/03/29 12:05:30;;;;;;;6.20;2.50;;;17.00;99.90;;;;;;5068712;28;20437;-83
2021/03/29 12:08:09;;;;;;;5.20;2.80;;;;;;;;;;5072129;28;20541;-82
2021/03/29 12:13:29;;;;;;;5.13;2.97;;;17.20;99.90;;;;;;5035647;28;20482;-83
2021/03/29 12:15:59;;;;;;;9.30;4.33;;;;;;;;;;5056919;28;20453;-83
2021/03/29 12:18:35;;;;;;;4.73;2.40;;;17.60;99.90;;;;;;5058025;28;20437;-83
2021/03/29 12:21:02;;;;;;;7.20;3.00;;;17.20;99.90;;;;;;5055823;28;20499;-83
2021/03/29 12:23:31;;;;;;;11.73;3.47;;;17.30;99.90;;;;;;5057956;28;20463;-82
2021/03/29 12:25:59;;;;;;;10.33;3.10;;;17.50;99.90;;;;;;5062369;28;20445;-82
2021/03/29 12:28:28;;;;;;;8.00;2.03;;;17.60;99.90;;;;;;5063296;28;20511;-83
2021/03/29 12:30:55;;;;;;;7.30;2.90;;;17.60;99.90;;;;;;5064089;28;20481;-83
2021/03/29 12:33:22;;;;;;;5.93;3.97;;;17.30;99.90;;;;;;5063466;28;20480;-83
2021/03/29 12:35:49;;;;;;;9.93;4.03;;;17.00;99.90;;;;;;5061606;28;20442;-83
2021/03/29 12:38:16;;;;;;;7.13;2.67;;;16.90;99.90;;;;;;5061191;28;20434;-83
2021/03/29 12:40:44;;;;;;;5.13;3.10;;;16.80;99.90;;;;;;5060671;28;20466;-83
2021/03/29 12:43:15;;;;;;;8.90;3.90;;;17.00;99.90;;;;;;5060380;28;20509;-83
2021/03/29 12:45:42;;;;;;;9.27;3.20;;;17.10;99.90;;;;;;5060105;28;20434;-83
2021/03/29 12:48:13;;;;;;;5.80;2.87;;;17.10;99.90;;;;;;5059436;28;20511;-83
2021/03/29 12:50:39;;;;;;;6.47;3.27;;;17.40;99.90;;;;;;5061392;28;20550;-83
2021/03/29 12:53:05;;;;;;;6.17;2.30;;;17.10;99.90;;;;;;5072664;28;20460;-83
2021/03/29 12:55:32;;;;;;;16.03;3.90;;;;;;;;;;5075260;28;20442;-83
2021/03/29 12:57:58;;;;;;;6.67;3.70;;;17.80;99.90;;;;;;5075183;28;20445;-83
2021/03/29 13:00:27;;;;;;;4.70;3.10;;;17.50;99.90;;;;;;5076376;28;20457;-83